Map

Track Data

SID SEASON NUMBER BASIN SUBBASIN NAME ISO_TIME NATURE LAT LON WMO_WIND WMO_PRES WMO_AGENCY TRACK_TYPE DIST2LAND LANDFALL IFLAG USA_AGENCY USA_ATCF_ID USA_LAT USA_LON USA_RECORD USA_STATUS USA_WIND USA_PRES USA_SSHS USA_R34_NE USA_R34_SE USA_R34_SW USA_R34_NW USA_R50_NE USA_R50_SE USA_R50_SW USA_R50_NW USA_R64_NE USA_R64_SE USA_R64_SW USA_R64_NW USA_POCI USA_ROCI USA_RMW USA_EYE TOKYO_LAT TOKYO_LON TOKYO_GRADE TOKYO_WIND TOKYO_PRES TOKYO_R50_DIR TOKYO_R50_LONG TOKYO_R50_SHORT TOKYO_R30_DIR TOKYO_R30_LONG TOKYO_R30_SHORT TOKYO_LAND CMA_LAT CMA_LON CMA_CAT CMA_WIND CMA_PRES HKO_LAT HKO_LON HKO_CAT HKO_WIND HKO_PRES NEWDELHI_LAT NEWDELHI_LON NEWDELHI_GRADE NEWDELHI_WIND NEWDELHI_PRES NEWDELHI_CI NEWDELHI_DP NEWDELHI_POCI REUNION_LAT REUNION_LON REUNION_TYPE REUNION_WIND REUNION_PRES REUNION_TNUM REUNION_CI REUNION_RMW REUNION_R34_NE REUNION_R34_SE REUNION_R34_SW REUNION_R34_NW REUNION_R50_NE REUNION_R50_SE REUNION_R50_SW REUNION_R50_NW REUNION_R64_NE REUNION_R64_SE REUNION_R64_SW REUNION_R64_NW BOM_LAT BOM_LON BOM_TYPE BOM_WIND BOM_PRES BOM_TNUM BOM_CI BOM_RMW BOM_R34_NE BOM_R34_SE BOM_R34_SW BOM_R34_NW BOM_R50_NE BOM_R50_SE BOM_R50_SW BOM_R50_NW BOM_R64_NE BOM_R64_SE BOM_R64_SW BOM_R64_NW BOM_ROCI BOM_POCI BOM_EYE BOM_POS_METHOD BOM_PRES_METHOD NADI_LAT NADI_LON NADI_CAT NADI_WIND NADI_PRES WELLINGTON_LAT WELLINGTON_LON WELLINGTON_WIND WELLINGTON_PRES DS824_LAT DS824_LON DS824_STAGE DS824_WIND DS824_PRES TD9636_LAT TD9636_LON TD9636_STAGE TD9636_WIND TD9636_PRES TD9635_LAT TD9635_LON TD9635_WIND TD9635_PRES TD9635_ROCI NEUMANN_LAT NEUMANN_LON NEUMANN_CLASS NEUMANN_WIND NEUMANN_PRES MLC_LAT MLC_LON MLC_CLASS MLC_WIND MLC_PRES USA_GUST BOM_GUST BOM_GUST_PER REUNION_GUST REUNION_GUST_PER USA_SEAHGT USA_SEARAD_NE USA_SEARAD_SE USA_SEARAD_SW USA_SEARAD_NW STORM_SPEED STORM_DIR
2022274N13246 2022 66 EP MM PAINE 2022-09-30 18:00:00 NR 13.4000 -114.100 PROVISIONAL 1147 1130 O_____________ nhc_working_bt EP172022 13.4000 -114.100 DB 20 -3 1011 120 90 5 339
2022274N13246 2022 66 EP MM PAINE 2022-09-30 21:00:00 NR 13.6250 -114.187 PROVISIONAL 1130 1110 P_____________ EP172022 13.6250 -114.187 DB 20 -3 1011 120 90 4 347
2022274N13246 2022 66 EP MM PAINE 2022-10-01 00:00:00 NR 13.8000 -114.200 PROVISIONAL 1110 1095 O_____________ nhc_working_bt EP172022 13.8000 -114.200 DB 20 1009 -3 1011 120 90 3 19
2022274N13246 2022 66 EP MM PAINE 2022-10-01 03:00:00 NR 13.9000 -114.087 PROVISIONAL 1095 1077 P_____________ EP172022 13.9000 -114.087 DB 20 1009 -3 1011 120 90 4 56
2022274N13246 2022 66 EP MM PAINE 2022-10-01 06:00:00 NR 14.0000 -113.900 PROVISIONAL 1077 1048 O_____________ nhc_working_bt EP172022 14.0000 -113.900 DB 20 1009 -3 1011 120 90 5 51
2022274N13246 2022 66 EP MM PAINE 2022-10-01 09:00:00 NR 14.2000 -113.700 PROVISIONAL 1048 1019 P_____________ EP172022 14.2000 -113.700 DB 20 1009 -3 1011 120 90 6 44
2022274N13246 2022 66 EP MM PAINE 2022-10-01 12:00:00 NR 14.4000 -113.500 PROVISIONAL 1019 1001 O_____________ nhc_working_bt EP172022 14.4000 -113.500 DB 20 1009 -3 1011 120 90 5 48
2022274N13246 2022 66 EP MM PAINE 2022-10-01 15:00:00 NR 14.5225 -113.335 PROVISIONAL 1001 987 P_____________ EP172022 14.5225 -113.335 DB 20 1009 -3 1011 120 90 4 56
2022274N13246 2022 66 EP MM PAINE 2022-10-01 18:00:00 NR 14.6000 -113.200 PROVISIONAL 987 973 O_____________ nhc_working_bt EP172022 14.6000 -113.200 DB 20 1009 -3 1011 120 90 3 57
2022274N13246 2022 66 EP MM PAINE 2022-10-01 21:00:00 NR 14.6650 -113.107 PROVISIONAL 973 970 P_____________ EP172022 14.6650 -113.107 DB 20 1008 -3 1010 120 90 2 63
2022274N13246 2022 66 EP MM PAINE 2022-10-02 00:00:00 NR 14.7000 -113.000 PROVISIONAL 970 963 O_____________ nhc_working_bt EP172022 14.7000 -113.000 DB 20 1008 -3 1010 120 90 3 81
2022274N13246 2022 66 EP MM PAINE 2022-10-02 03:00:00 NR 14.7075 -112.822 PROVISIONAL 963 956 P_____________ EP172022 14.7075 -112.822 DB 20 1008 -3 1010 120 60 4 90
2022274N13246 2022 66 EP MM PAINE 2022-10-02 06:00:00 NR 14.7000 -112.600 PROVISIONAL 956 938 O_____________ nhc_working_bt EP172022 14.7000 -112.600 DB 20 1008 -3 1010 120 30 5 89
2022274N13246 2022 66 EP MM PAINE 2022-10-02 09:00:00 NR 14.7150 -112.358 PROVISIONAL 938 913 P_____________ EP172022 14.7150 -112.358 DB 22 1008 -3 1010 120 60 5 90
2022274N13246 2022 66 EP MM PAINE 2022-10-02 12:00:00 NR 14.7000 -112.100 PROVISIONAL 913 895 O_____________ nhc_working_bt EP172022 14.7000 -112.100 DB 25 1008 -3 1010 120 90 5 102
2022274N13246 2022 66 EP MM PAINE 2022-10-02 15:00:00 NR 14.6001 -111.812 PROVISIONAL 895 886 P_____________ EP172022 14.6001 -111.812 DB 25 1008 -3 1010 135 60 5 112
2022274N13246 2022 66 EP MM PAINE 2022-10-02 18:00:00 DS 14.5000 -111.600 PROVISIONAL 886 886 O_____________ nhc_working_bt EP172022 14.5000 -111.600 LO 25 1008 -3 1011 150 30 35 3 118
2022274N13246 2022 66 EP MM PAINE 2022-10-02 21:00:00 DS 14.4700 -111.563 PROVISIONAL 886 886 P_____________ EP172022 14.4700 -111.563 LO 25 1008 -3 1011 150 30 0 0
2022274N13246 2022 66 EP MM PAINE 2022-10-03 00:00:00 DS 14.5000 -111.600 PROVISIONAL 886 886 O_____________ nhc_working_bt EP172022 14.5000 -111.600 LO 25 1008 -3 1011 150 30 1 331
2022274N13246 2022 66 EP MM PAINE 2022-10-03 03:00:00 DS 14.5475 -111.600 PROVISIONAL 886 872 P_____________ EP172022 14.5475 -111.600 LO 25 1008 -3 1011 150 30 2 8
2022274N13246 2022 66 EP MM PAINE 2022-10-03 06:00:00 DS 14.7000 -111.600 PROVISIONAL 872 850 O_____________ nhc_working_bt EP172022 14.7000 -111.600 LO 25 1008 -3 1011 150 30 5 3
2022274N13246 2022 66 EP MM PAINE 2022-10-03 09:00:00 DS 15.0425 -111.585 PROVISIONAL 850 823 P_____________ EP172022 15.0425 -111.585 LO 25 1008 -3 1011 150 30 7 0
2022274N13246 2022 66 EP MM PAINE 2022-10-03 12:00:00 DS 15.4000 -111.600 PROVISIONAL 823 816 O_____________ nhc_working_bt EP172022 15.4000 -111.600 LO 25 1008 -3 1011 150 30 35 5 351
2022274N13246 2022 66 EP MM PAINE 2022-10-03 15:00:00 DS 15.5575 -111.678 PROVISIONAL 818 818 P_____________ EP172022 15.5575 -111.678 LO 30 1007 -3 1011 140 27 4 327
2022274N13246 2022 66 EP MM PAINE 2022-10-03 18:00:00 TS 15.7000 -111.800 PROVISIONAL 821 797 O_____________ nhc_working_bt EP172022 15.7000 -111.800 TS 35 1006 0 25 30 30 1012 130 25 45 5 331
2022274N13246 2022 66 EP MM PAINE 2022-10-03 21:00:00 TS 16.0050 -111.937 PROVISIONAL 797 770 P_____________ EP172022 15.9850 -111.935 TS 35 1006 0 27 30 30 1012 125 22 7 334
2022274N13246 2022 66 EP MM PAINE 2022-10-04 00:00:00 TS 16.3000 -112.100 PROVISIONAL 770 751 O_____________ nhc_working_bt EP172022 16.3000 -112.100 TS 35 1006 0 20 30 30 30 1012 120 20 45 6 326
2022274N13246 2022 66 EP MM PAINE 2022-10-04 03:00:00 TS 16.5192 -112.293 PROVISIONAL 755 737 P_____________ EP172022 16.5575 -112.293 TS 35 1006 0 20 30 30 30 1012 105 20 6 318
2022274N13246 2022 66 EP MM PAINE 2022-10-04 06:00:00 TS 16.7333 -112.500 PROVISIONAL 741 717 O_____________ nhc_working_bt EP172022 16.8000 -112.500 TS 35 1006 0 20 30 30 30 1012 90 20 45 12 30 30 30 6 322
2022274N13246 2022 66 EP MM PAINE 2022-10-04 09:00:00 TS 17.0267 -112.705 PROVISIONAL 717 695 P_____________ EP172022 17.0650 -112.700 TS 35 1006 0 20 30 30 30 1012 90 20 12 30 30 30 7 326
2022274N13246 2022 66 EP MM PAINE 2022-10-04 12:00:00 TS 17.3000 -112.900 PROVISIONAL 695 680 O_____________ nhc_working_bt EP172022 17.3000 -112.900 TS 35 1006 0 20 30 30 30 1012 90 20 45 12 30 30 30 30 6 323
2022274N13246 2022 66 EP MM PAINE 2022-10-04 15:00:00 TS 17.4724 -113.059 PROVISIONAL 685 680 P_____________ EP172022 17.4725 -113.108 TS 37 1005 0 20 30 30 30 1012 85 20 12 37 30 4 313
2022274N13246 2022 66 EP MM PAINE 2022-10-04 18:00:00 TS 17.6000 -113.233 PROVISIONAL 680 675 O_____________ nhc_working_bt EP172022 17.6000 -113.300 TS 40 1004 0 20 30 30 30 1012 80 20 50 12 45 30 5 303
2022274N13246 2022 66 EP MM PAINE 2022-10-04 21:00:00 TS 17.7359 -113.481 PROVISIONAL 686 676 P_____________ EP172022 17.7075 -113.458 TS 40 1004 0 25 35 35 35 1012 80 20 12 45 30 5 299
2022274N13246 2022 66 EP MM PAINE 2022-10-05 00:00:00 TS 17.8667 -113.733 PROVISIONAL 679 679 O_____________ nhc_working_bt EP172022 17.8000 -113.600 TS 40 1004 0 30 40 40 40 1012 80 20 50 12 15 45 30 5 302
2022274N13246 2022 66 EP MM PAINE 2022-10-05 03:00:00 TS 18.0100 -113.939 PROVISIONAL 682 679 P_____________ EP172022 17.9000 -113.743 TS 37 1005 0 30 40 40 40 1012 80 20 12 15 37 30 4 307
2022274N13246 2022 66 EP MM PAINE 2022-10-05 06:00:00 TS 18.1333 -114.100 PROVISIONAL 685 676 O_____________ nhc_working_bt EP172022 18.0000 -113.900 TS 35 1006 0 30 40 40 40 1012 80 20 45 12 15 15 30 30 3 310
2022274N13246 2022 66 EP MM PAINE 2022-10-05 09:00:00 TS 18.2175 -114.198 PROVISIONAL 683 681 P_____________ EP172022 18.1075 -114.092 TS 32 1006 -1 1011 80 20 2 305
2022274N13246 2022 66 EP MM PAINE 2022-10-05 12:00:00 TS 18.2667 -114.300 PROVISIONAL 681 681 O_____________ nhc_working_bt EP172022 18.2000 -114.300 TD 30 1006 -1 1010 80 20 40 3 285
2022274N13246 2022 66 EP MM PAINE 2022-10-05 15:00:00 TS 18.2901 -114.476 PROVISIONAL 695 695 P_____________ EP172022 18.2600 -114.503 TD 27 1007 -1 1011 80 20 4 275
2022274N13246 2022 66 EP MM PAINE 2022-10-05 18:00:00 TS 18.3000 -114.700 PROVISIONAL 709 O_____________ nhc_working_bt EP172022 18.3000 -114.700 TD 25 1008 -1 1012 80 20 35 4 273

About IBTrACS Database

This database is a web-friendly format of International Best Track Archive for Climate Stewardship (IBTrACS), a global best track data archive curated by NOAA dating back to 1842.

Updated: 2022-11-16